• location
  • image
mod_vvisit_countermod_vvisit_countermod_vvisit_countermod_vvisit_countermod_vvisit_countermod_vvisit_counter
mod_vvisit_counterToday530
mod_vvisit_counterYesterday490
mod_vvisit_counterThis week3642
mod_vvisit_counterLast week3560
mod_vvisit_counterThis month12085
mod_vvisit_counterLast month17136
mod_vvisit_counterAll days940871

We have: 19 guests, 3 bots online
Your IP: 54.92.163.188
 , 
Today: Jul 22, 2018
Airport / Information for passengers / Passenger terminal

Passenger terminal

 

The address of the passenger terminal:

Siauliai International Airport

Lakunu str. 4, LT-77103 Siauliai, Lithuania

 

The services provided:

 

- Customs services

- State Border Guard services

- Aviation security services

- Cafe

 

atvykimas atvykimas2 isvykimas isvykimas2

 

kavine kavine1 kavine2 terminalas terminalas2

Today

Sunday, 22 July 2018

Aviation Weather Forecast

[source: ADDS]
METAR
EYSA 221550Z 32006KT 280V360 9999 VCSH FEW066CB 28/15 Q1010 BLU NOSIG =
TAF
TAF EYSA 221402Z 2215/2224 VRB05KT 9000 SCT045 TEMPO 2215/2218 34015KT -TSRA SCT030CB TEMPO 2218/2221 SCT030CB =
SR / SS: 02:20 / 18:48 UTC (EYSA 2018-07-22)

Search

Who's Online

We have 22 guests online

tic logo en